Terminal Aerodrome Forecast
Issued by NWS

Home | Current Version | Previous Version | Text Only | Print | Product List | Glossary On
Versions: 1 2 3 4 5 6 7 8 9 10 11 12 13 14 15
007
FTUS43 KMQT 191123
TAFIWD
TAF
KIWD 191123Z 1912/2012 18006KT 4SM BR BKN004
     FM191500 19007KT P6SM BKN010
     FM191700 20006KT P6SM SCT045
     FM200400 18005KT P6SM BKN060
     FM200900 16004KT P6SM BKN030=

USA.gov is the U.S. government's official web portal to all federal, state and local government web resources and services.